Time;durP1;ratioP1;P1;durP2;ratioP2;P2;SDS_P1;SDS_P2;PMS_P1;PMS_P2;Temp;Humidity;BMP_temperature;BMP_pressure;BME280_temperature;BME280_humidity;BME280_pressure;Samples;Min_cycle;Max_cycle;Signal;HPM_P1;HPM_P2
2021/05/05 00:00:29;;;;;;;0.70;0.70;;;15.50;54.90;;;;;;5043506;28;21165;-40
2021/05/05 00:02:55;;;;;;;1.33;0.70;;;15.40;54.60;;;;;;5046888;28;20512;-40
2021/05/05 00:05:21;;;;;;;2.07;0.70;;;15.30;54.40;;;;;;5047332;28;20450;-40
2021/05/05 00:07:47;;;;;;;3.53;0.70;;;15.10;54.80;;;;;;5043798;28;20258;-40
2021/05/05 00:10:14;;;;;;;1.13;1.00;;;15.00;54.90;;;;;;5041117;28;20468;-40
2021/05/05 00:12:40;;;;;;;2.60;1.37;;;14.90;55.00;;;;;;5048091;28;20231;-40
2021/05/05 00:15:10;;;;;;;2.23;1.10;;;15.00;55.20;;;;;;5051918;28;20462;-40
2021/05/05 00:17:36;;;;;;;1.07;0.80;;;14.90;54.80;;;;;;5050671;28;20446;-40
2021/05/05 00:20:04;;;;;;;1.87;0.80;;;14.70;54.40;;;;;;5050982;28;20923;-40
2021/05/05 00:22:30;;;;;;;1.27;0.77;;;14.70;55.30;;;;;;5046671;28;20883;-40
2021/05/05 00:24:56;;;;;;;5.20;0.87;;;14.70;54.80;;;;;;5043867;28;20467;-40
2021/05/05 00:27:21;;;;;;;0.93;0.70;;;14.90;55.00;;;;;;5049780;28;20196;-40
2021/05/05 00:29:47;;;;;;;1.90;0.90;;;15.10;54.90;;;;;;5046204;28;20228;-40
2021/05/05 00:32:12;;;;;;;1.80;0.70;;;15.20;54.30;;;;;;5046119;28;20676;-40
2021/05/05 00:34:38;;;;;;;0.80;0.77;;;15.20;53.70;;;;;;5044709;28;20196;-40
2021/05/05 00:37:03;;;;;;;2.10;0.90;;;15.20;54.10;;;;;;5042529;28;20637;-40
2021/05/05 00:39:29;;;;;;;1.70;0.80;;;15.20;54.40;;;;;;5049484;28;20595;-40
2021/05/05 00:41:55;;;;;;;4.57;1.00;;;15.20;54.40;;;;;;5046809;28;20264;-40
2021/05/05 00:44:23;;;;;;;1.47;0.77;;;15.20;54.30;;;;;;5051015;28;20212;-40
2021/05/05 00:46:49;;;;;;;1.67;0.93;;;15.20;54.30;;;;;;5048414;28;20482;-40
2021/05/05 00:49:14;;;;;;;1.17;1.00;;;15.20;54.50;;;;;;5050368;28;21274;-40
2021/05/05 00:51:40;;;;;;;0.80;0.60;;;15.30;54.60;;;;;;5040591;28;20288;-40
2021/05/05 00:54:06;;;;;;;1.97;1.70;;;15.40;54.80;;;;;;5044924;28;20215;-40
2021/05/05 00:56:32;;;;;;;0.70;0.70;;;15.50;54.80;;;;;;5049406;28;20196;-40
2021/05/05 00:58:57;;;;;;;2.33;1.00;;;15.80;54.30;;;;;;5028892;28;20459;-40
2021/05/05 01:01:23;;;;;;;2.20;0.90;;;15.90;53.80;;;;;;5046796;28;20204;-40
2021/05/05 01:03:48;;;;;;;1.30;0.67;;;16.10;53.70;;;;;;5045174;28;20219;-39
2021/05/05 01:06:15;;;;;;;4.93;1.10;;;16.20;53.20;;;;;;5045388;28;20271;-40
2021/05/05 01:08:42;;;;;;;1.53;0.80;;;16.20;52.90;;;;;;5047462;28;20212;-40
2021/05/05 01:11:07;;;;;;;1.80;0.93;;;16.30;52.80;;;;;;5048368;28;20446;-40
2021/05/05 01:13:33;;;;;;;2.27;0.83;;;16.40;52.70;;;;;;5048902;28;20486;-40
2021/05/05 01:15:59;;;;;;;1.20;0.60;;;16.60;52.30;;;;;;5044760;28;20637;-40
2021/05/05 01:18:24;;;;;;;0.70;0.63;;;16.70;51.40;;;;;;5048039;28;20249;-40
2021/05/05 01:20:57;;;;;;;1.27;0.70;;;16.70;51.60;;;;;;5048373;28;20567;-40
2021/05/05 01:23:24;;;;;;;2.40;0.80;;;16.70;51.70;;;;;;5043488;28;20696;-40
2021/05/05 01:25:50;;;;;;;1.23;1.07;;;16.80;51.80;;;;;;5043113;28;20446;-40
2021/05/05 01:28:16;;;;;;;1.13;0.70;;;16.70;51.00;;;;;;5045409;28;20446;-40
2021/05/05 01:30:41;;;;;;;0.90;0.90;;;16.60;51.10;;;;;;5044179;28;21346;-40
2021/05/05 01:33:07;;;;;;;1.60;0.93;;;16.60;51.20;;;;;;5042223;28;20262;-40
2021/05/05 01:35:33;;;;;;;1.10;0.77;;;16.70;51.60;;;;;;5045247;28;20228;-40
2021/05/05 01:37:59;;;;;;;1.13;0.80;;;16.80;51.50;;;;;;5049298;28;20441;-40
2021/05/05 01:40:30;;;;;;;1.73;1.27;;;16.90;51.40;;;;;;5043835;28;20605;-40
2021/05/05 01:42:56;;;;;;;5.30;1.00;;;17.00;51.10;;;;;;5043145;28;20193;-40
2021/05/05 01:45:22;;;;;;;1.30;0.80;;;17.00;50.80;;;;;;5047930;28;20438;-41
2021/05/05 01:47:52;;;;;;;1.90;1.00;;;17.10;50.60;;;;;;5048223;28;20439;-40
2021/05/05 01:50:18;;;;;;;1.77;1.00;;;17.10;50.60;;;;;;5049451;28;20187;-40
2021/05/05 01:52:44;;;;;;;1.33;0.90;;;17.10;50.80;;;;;;5049588;28;20569;-40
2021/05/05 01:55:10;;;;;;;1.80;0.90;;;17.20;50.80;;;;;;5045308;28;20683;-40
2021/05/05 01:57:39;;;;;;;2.60;1.00;;;17.20;50.60;;;;;;5041503;28;20275;-40
2021/05/05 02:00:12;;;;;;;1.20;0.90;;;17.20;50.60;;;;;;5041191;28;20513;-41
2021/05/05 02:02:37;;;;;;;2.37;1.13;;;17.10;50.40;;;;;;5043730;28;20777;-42
2021/05/05 02:05:05;;;;;;;1.53;0.80;;;16.70;51.40;;;;;;5044565;28;20465;-42
2021/05/05 02:07:30;;;;;;;1.97;1.03;;;16.30;51.80;;;;;;5046493;28;20677;-41
2021/05/05 02:09:56;;;;;;;1.50;1.07;;;16.20;52.60;;;;;;5040755;28;20439;-41
2021/05/05 02:12:22;;;;;;;1.73;1.17;;;16.00;53.10;;;;;;5046005;28;20677;-42
2021/05/05 02:14:48;;;;;;;4.10;1.30;;;15.90;53.50;;;;;;5045650;28;20197;-41
2021/05/05 02:17:15;;;;;;;2.87;1.30;;;15.70;53.80;;;;;;5048508;28;20443;-41
2021/05/05 02:19:42;;;;;;;1.20;0.83;;;15.50;53.70;;;;;;5046733;28;20485;-41
2021/05/05 02:22:08;;;;;;;2.30;1.17;;;15.40;54.40;;;;;;5045671;28;20504;-41
2021/05/05 02:24:33;;;;;;;1.80;0.97;;;15.20;54.90;;;;;;5047095;28;20443;-41
2021/05/05 02:26:59;;;;;;;1.87;1.10;;;15.10;54.90;;;;;;5041645;28;20196;-41
2021/05/05 02:29:25;;;;;;;0.83;0.83;;;15.00;55.00;;;;;;5043387;28;20197;-41
2021/05/05 02:31:51;;;;;;;1.43;0.77;;;14.90;55.10;;;;;;5045709;28;20443;-41
2021/05/05 02:34:17;;;;;;;2.67;1.00;;;14.80;55.20;;;;;;5045941;28;20203;-41
2021/05/05 02:36:43;;;;;;;3.70;1.07;;;14.70;55.40;;;;;;5044132;28;20228;-43
2021/05/05 02:39:10;;;;;;;2.50;1.07;;;14.80;55.30;;;;;;5045966;28;20451;-40
2021/05/05 02:41:38;;;;;;;1.47;0.93;;;14.80;55.60;;;;;;5044936;28;20196;-40
2021/05/05 02:44:04;;;;;;;3.30;0.93;;;14.70;55.70;;;;;;5054247;28;20438;-41
2021/05/05 02:46:30;;;;;;;1.40;0.83;;;14.60;56.00;;;;;;5040869;28;20881;-41
2021/05/05 02:48:55;;;;;;;2.97;0.90;;;14.60;56.00;;;;;;5045556;28;20435;-41
2021/05/05 02:51:21;;;;;;;1.27;1.03;;;14.30;56.20;;;;;;5053558;28;20205;-41
2021/05/05 02:53:47;;;;;;;1.90;0.93;;;14.30;56.40;;;;;;5050023;28;20794;-41
2021/05/05 02:56:12;;;;;;;1.93;0.90;;;14.40;56.70;;;;;;5049045;28;20189;-40
2021/05/05 02:58:38;;;;;;;1.00;0.90;;;14.30;56.70;;;;;;5044652;28;20193;-41
2021/05/05 03:01:04;;;;;;;6.30;1.27;;;14.20;56.90;;;;;;5046179;28;20636;-42
2021/05/05 03:03:29;;;;;;;1.37;0.90;;;14.10;57.30;;;;;;5041266;28;20871;-41
2021/05/05 03:05:55;;;;;;;2.73;1.13;;;14.20;57.80;;;;;;5050454;28;20923;-41
2021/05/05 03:08:20;;;;;;;3.03;1.33;;;14.30;57.70;;;;;;5048110;28;20570;-41
2021/05/05 03:10:47;;;;;;;4.33;1.23;;;14.30;57.60;;;;;;5049541;28;20240;-41
2021/05/05 03:13:13;;;;;;;1.63;1.40;;;14.30;57.50;;;;;;5049850;28;20224;-40
2021/05/05 03:15:40;;;;;;;4.23;1.20;;;14.30;57.40;;;;;;5031517;28;20482;-41
2021/05/05 03:18:06;;;;;;;3.20;1.10;;;14.20;57.20;;;;;;5048231;28;20447;-41
2021/05/05 03:20:32;;;;;;;2.60;0.90;;;14.10;57.50;;;;;;5049835;28;20786;-41
2021/05/05 03:22:57;;;;;;;2.10;1.13;;;14.00;57.50;;;;;;5048164;28;20315;-40
2021/05/05 03:25:23;;;;;;;2.10;0.93;;;14.00;57.80;;;;;;5052505;28;20197;-41
2021/05/05 03:27:49;;;;;;;1.83;0.90;;;14.10;57.90;;;;;;5051099;28;20266;-40
2021/05/05 03:30:16;;;;;;;1.50;1.03;;;14.00;57.50;;;;;;5048867;28;20185;-42
2021/05/05 03:32:41;;;;;;;1.63;0.93;;;13.90;57.70;;;;;;5030042;28;20982;-41
2021/05/05 03:35:08;;;;;;;2.07;1.03;;;14.00;57.90;;;;;;5039659;28;20475;-41
2021/05/05 03:37:34;;;;;;;1.80;1.10;;;14.00;57.90;;;;;;5046679;28;20196;-40
2021/05/05 03:40:02;;;;;;;1.63;0.80;;;13.80;57.50;;;;;;5041513;28;20452;-41
2021/05/05 03:42:28;;;;;;;1.40;1.00;;;13.80;57.80;;;;;;5038922;28;20442;-40
2021/05/05 03:44:53;;;;;;;4.00;1.20;;;13.90;57.90;;;;;;5043626;28;20455;-42
2021/05/05 03:47:19;;;;;;;1.50;0.90;;;13.80;57.90;;;;;;5047490;28;20687;-40
2021/05/05 03:49:45;;;;;;;0.90;0.87;;;13.80;58.10;;;;;;5047600;28;20197;-41
2021/05/05 03:52:10;;;;;;;3.90;0.97;;;13.80;58.20;;;;;;5044486;28;20220;-40
2021/05/05 03:54:36;;;;;;;2.13;1.60;;;13.80;58.20;;;;;;5043182;28;20211;-40
2021/05/05 03:57:01;;;;;;;1.43;1.10;;;13.70;57.90;;;;;;5046340;28;20203;-41
2021/05/05 03:59:27;;;;;;;1.30;0.90;;;13.60;57.80;;;;;;5039306;28;20203;-41
2021/05/05 04:01:53;;;;;;;5.37;0.90;;;13.30;58.40;;;;;;5043953;28;20200;-41
2021/05/05 04:04:18;;;;;;;1.10;0.80;;;13.00;58.70;;;;;;5045534;28;20280;-41
2021/05/05 04:06:44;;;;;;;2.00;0.70;;;13.10;59.00;;;;;;5045277;28;20201;-42
2021/05/05 04:09:11;;;;;;;2.60;1.27;;;13.10;59.00;;;;;;5048953;28;20193;-41
2021/05/05 04:11:37;;;;;;;3.53;0.80;;;13.00;59.10;;;;;;5049799;28;20283;-40
2021/05/05 04:14:03;;;;;;;2.43;0.93;;;12.90;59.30;;;;;;5049118;28;20940;-40
2021/05/05 04:16:29;;;;;;;6.17;1.23;;;12.90;59.80;;;;;;5049381;28;20450;-42
2021/05/05 04:18:54;;;;;;;0.80;0.70;;;12.80;60.00;;;;;;5050007;28;20820;-42
2021/05/05 04:21:21;;;;;;;2.43;1.23;;;13.00;60.00;;;;;;5049286;28;20231;-41
2021/05/05 04:23:48;;;;;;;2.03;1.00;;;13.10;59.90;;;;;;5042624;28;20184;-42
2021/05/05 04:26:13;;;;;;;1.47;0.77;;;13.20;60.20;;;;;;5048671;28;20446;-40
2021/05/05 04:28:39;;;;;;;2.30;1.10;;;13.20;60.00;;;;;;5047339;28;20439;-40
2021/05/05 04:31:05;;;;;;;2.67;1.03;;;13.10;60.10;;;;;;5045929;28;20195;-41
2021/05/05 04:33:31;;;;;;;1.53;1.23;;;13.10;60.40;;;;;;5040374;28;20575;-40
2021/05/05 04:35:56;;;;;;;1.93;1.00;;;13.20;60.40;;;;;;5049025;28;20475;-40
2021/05/05 04:38:22;;;;;;;2.03;1.07;;;13.10;60.10;;;;;;5047556;28;20205;-41
2021/05/05 04:40:48;;;;;;;3.37;1.10;;;12.90;60.50;;;;;;5048813;28;20185;-41
2021/05/05 04:43:13;;;;;;;6.67;1.43;;;12.90;60.80;;;;;;5044794;28;20247;-41
2021/05/05 04:45:40;;;;;;;3.30;1.40;;;12.80;61.00;;;;;;5042774;28;20571;-41
2021/05/05 04:48:06;;;;;;;2.27;1.20;;;12.90;61.10;;;;;;5049875;28;20189;-41
2021/05/05 04:50:31;;;;;;;2.23;1.60;;;12.90;60.50;;;;;;5043918;28;20443;-40
2021/05/05 04:52:57;;;;;;;1.33;0.83;;;12.90;60.60;;;;;;5044048;28;22290;-41
2021/05/05 04:55:23;;;;;;;1.40;1.10;;;12.90;59.90;;;;;;5046087;28;20269;-40
2021/05/05 04:57:48;;;;;;;2.67;1.13;;;12.60;60.20;;;;;;5047731;28;20192;-40
2021/05/05 05:00:15;;;;;;;1.70;0.80;;;12.70;60.40;;;;;;5042975;28;21282;-40
2021/05/05 05:02:41;;;;;;;2.20;0.97;;;12.60;59.70;;;;;;5045051;28;20188;-40
2021/05/05 05:05:07;;;;;;;3.90;1.17;;;12.60;60.00;;;;;;5037731;28;20540;-40
2021/05/05 05:07:33;;;;;;;1.53;0.90;;;12.60;60.00;;;;;;5042054;28;20428;-41
2021/05/05 05:09:59;;;;;;;1.80;1.10;;;12.80;59.80;;;;;;5044159;28;20450;-40
2021/05/05 05:12:25;;;;;;;4.10;0.90;;;13.00;59.40;;;;;;5047780;28;20311;-39
2021/05/05 05:14:52;;;;;;;2.67;1.00;;;13.10;59.60;;;;;;5027853;28;20885;-39
2021/05/05 05:17:18;;;;;;;0.70;0.60;;;13.30;59.50;;;;;;5044033;28;20620;-39
2021/05/05 05:19:44;;;;;;;1.77;0.70;;;13.10;58.30;;;;;;5046095;28;20482;-40
2021/05/05 05:22:10;;;;;;;1.00;0.70;;;13.00;58.90;;;;;;5045470;28;20923;-39
2021/05/05 05:24:35;;;;;;;0.90;0.87;;;13.00;58.90;;;;;;5047731;28;20189;-39
2021/05/05 05:27:01;;;;;;;1.40;0.70;;;13.00;58.60;;;;;;5043393;28;20656;-39
2021/05/05 05:29:27;;;;;;;0.90;0.73;;;12.80;58.80;;;;;;5051560;28;20671;-40
2021/05/05 05:31:52;;;;;;;1.30;0.73;;;12.80;58.70;;;;;;5043348;28;20192;-39
2021/05/05 05:34:18;;;;;;;1.97;1.00;;;13.00;59.10;;;;;;5046888;28;20258;-39
2021/05/05 05:36:43;;;;;;;0.87;0.70;;;12.90;59.00;;;;;;5043634;28;20232;-40
2021/05/05 05:39:09;;;;;;;2.83;1.43;;;12.90;59.10;;;;;;5040096;28;20280;-40
2021/05/05 05:41:36;;;;;;;0.93;0.83;;;12.90;59.00;;;;;;5043590;28;20246;-39
2021/05/05 05:44:02;;;;;;;0.83;0.83;;;13.00;58.80;;;;;;5045304;28;20427;-40
2021/05/05 05:46:28;;;;;;;0.80;0.63;;;13.10;58.70;;;;;;5049758;28;20431;-39
2021/05/05 05:48:54;;;;;;;1.70;0.90;;;12.80;58.60;;;;;;5049773;28;20435;-39
2021/05/05 05:51:19;;;;;;;1.13;1.03;;;12.90;59.10;;;;;;5036610;28;20669;-39
2021/05/05 05:53:45;;;;;;;0.80;0.63;;;12.90;59.40;;;;;;5043990;28;20688;-39
2021/05/05 05:56:11;;;;;;;1.03;0.87;;;12.90;59.50;;;;;;5045650;28;20184;-39
2021/05/05 05:58:36;;;;;;;1.80;0.80;;;13.00;59.30;;;;;;5042905;28;20675;-39
2021/05/05 06:01:02;;;;;;;1.27;1.17;;;13.20;59.10;;;;;;5038236;28;20640;-39
2021/05/05 06:03:28;;;;;;;1.37;0.80;;;13.20;58.50;;;;;;5050616;28;20197;-39
2021/05/05 06:05:54;;;;;;;1.00;0.80;;;12.90;58.60;;;;;;5040432;28;20788;-39
2021/05/05 06:08:20;;;;;;;1.10;0.83;;;12.90;59.20;;;;;;5036662;28;20232;-40
2021/05/05 06:10:46;;;;;;;1.83;1.00;;;12.80;59.40;;;;;;5050965;28;20196;-39
2021/05/05 06:13:12;;;;;;;1.50;1.00;;;12.80;59.20;;;;;;5046712;28;20486;-39
2021/05/05 06:15:37;;;;;;;2.57;1.30;;;12.80;59.50;;;;;;5046779;28;20526;-40
2021/05/05 06:18:05;;;;;;;1.77;0.90;;;12.80;59.70;;;;;;5038959;28;20205;-39
2021/05/05 06:20:31;;;;;;;8.07;4.77;;;12.90;59.70;;;;;;5045812;28;20284;-39
2021/05/05 06:22:57;;;;;;;6.30;3.20;;;13.00;59.80;;;;;;5049162;28;21056;-39
2021/05/05 06:25:23;;;;;;;5.97;5.33;;;13.00;58.90;;;;;;5045652;28;20538;-39
2021/05/05 06:27:48;;;;;;;2.70;1.33;;;13.10;58.70;;;;;;5043015;28;20545;-39
2021/05/05 06:30:15;;;;;;;1.60;1.13;;;13.30;58.60;;;;;;5038982;28;20189;-39
2021/05/05 06:32:41;;;;;;;3.50;2.10;;;13.40;58.10;;;;;;5042355;28;20267;-40
2021/05/05 06:35:07;;;;;;;2.57;1.50;;;13.50;58.10;;;;;;5041630;28;20500;-39
2021/05/05 06:37:34;;;;;;;2.33;1.30;;;13.50;57.70;;;;;;5046241;28;20205;-40
2021/05/05 06:40:01;;;;;;;2.97;2.43;;;13.40;57.50;;;;;;5046409;28;20447;-39
2021/05/05 06:42:28;;;;;;;1.73;1.13;;;13.50;57.40;;;;;;5049278;28;20534;-42
2021/05/05 06:44:53;;;;;;;2.33;1.40;;;13.60;56.80;;;;;;5047115;28;20445;-39
2021/05/05 06:47:19;;;;;;;5.33;1.50;;;13.60;57.00;;;;;;5041842;28;20522;-39
2021/05/05 06:49:45;;;;;;;2.87;1.17;;;13.50;56.50;;;;;;5049998;28;20291;-40
2021/05/05 06:52:10;;;;;;;5.40;1.50;;;13.50;56.30;;;;;;5050597;28;20632;-40
2021/05/05 06:54:36;;;;;;;5.23;1.97;;;13.50;56.70;;;;;;5038913;28;20200;-39
2021/05/05 06:57:02;;;;;;;3.20;1.67;;;13.60;56.60;;;;;;5040255;28;20225;-40
2021/05/05 06:59:27;;;;;;;2.93;1.53;;;13.60;56.40;;;;;;5046357;28;20238;-40
2021/05/05 07:01:53;;;;;;;3.10;1.90;;;13.60;56.20;;;;;;5048654;28;20208;-39
2021/05/05 07:04:19;;;;;;;2.67;1.20;;;13.40;56.50;;;;;;5049224;28;20227;-40
2021/05/05 07:06:44;;;;;;;2.57;1.30;;;13.40;56.70;;;;;;5040320;28;20196;-39
2021/05/05 07:09:10;;;;;;;1.60;1.00;;;13.50;56.20;;;;;;5037398;28;20256;-40
2021/05/05 07:11:38;;;;;;;3.07;1.27;;;13.20;54.10;;;;;;5047082;28;20568;-40
2021/05/05 07:14:04;;;;;;;5.13;1.40;;;13.10;54.90;;;;;;5046838;28;20228;-40
2021/05/05 07:16:30;;;;;;;2.50;1.47;;;13.00;54.40;;;;;;5047773;28;20813;-39
2021/05/05 07:18:56;;;;;;;5.00;1.40;;;13.10;54.50;;;;;;5038538;28;20530;-39
2021/05/05 07:21:23;;;;;;;1.60;1.40;;;12.90;55.50;;;;;;5049053;28;20569;-40
2021/05/05 07:23:48;;;;;;;3.13;1.40;;;12.90;55.20;;;;;;5044264;28;20198;-39
2021/05/05 07:26:15;;;;;;;3.57;1.27;;;12.90;55.50;;;;;;5049772;28;20450;-40
2021/05/05 07:28:41;;;;;;;2.03;1.37;;;13.10;55.50;;;;;;5043140;28;20280;-40
2021/05/05 07:31:07;;;;;;;4.60;1.53;;;13.00;54.80;;;;;;5041305;28;21164;-40
2021/05/05 07:33:35;;;;;;;3.40;1.33;;;13.20;55.40;;;;;;5045267;28;20485;-42
2021/05/05 07:36:02;;;;;;;6.20;1.50;;;13.20;55.80;;;;;;5043890;28;20561;-42
2021/05/05 07:38:55;;;;;;;8.93;1.80;;;13.30;54.90;;;;;;5050551;28;20446;-40
2021/05/05 07:46:46;;;;;;;1.53;1.43;;;12.80;54.70;;;;;;5047430;28;21169;-41
2021/05/05 07:49:16;;;;;;;2.27;1.30;;;13.00;55.70;;;;;;5051686;28;20477;-43
2021/05/05 07:51:43;;;;;;;2.23;1.50;;;13.10;54.60;;;;;;5037059;28;20903;-42
2021/05/05 07:54:09;;;;;;;3.03;1.60;;;13.10;53.60;;;;;;5049043;28;20491;-42
2021/05/05 07:56:35;;;;;;;3.30;1.40;;;13.00;50.50;;;;;;5047448;28;20431;-42
2021/05/05 07:59:01;;;;;;;5.90;1.83;;;12.70;49.50;;;;;;5047156;28;20738;-44
2021/05/05 08:01:28;;;;;;;1.93;1.27;;;12.60;48.90;;;;;;5046973;28;20200;-41
2021/05/05 08:03:54;;;;;;;3.33;1.33;;;12.70;50.40;;;;;;5048030;28;20466;-42
2021/05/05 08:06:20;;;;;;;4.80;1.50;;;13.00;49.60;;;;;;5047669;28;20476;-43
2021/05/05 08:08:45;;;;;;;3.20;1.80;;;13.10;47.60;;;;;;5045981;28;20188;-42
2021/05/05 08:11:11;;;;;;;3.63;1.70;;;13.20;47.90;;;;;;5043147;28;20197;-43
2021/05/05 08:13:37;;;;;;;3.23;1.23;;;13.30;46.50;;;;;;5041790;28;20254;-44
2021/05/05 08:16:03;;;;;;;4.90;1.73;;;13.00;45.40;;;;;;5037052;28;20192;-42
2021/05/05 08:18:29;;;;;;;3.80;1.33;;;12.50;45.60;;;;;;5044802;28;20286;-45
2021/05/05 08:20:54;;;;;;;4.90;1.90;;;12.60;46.90;;;;;;5037796;28;20954;-43
2021/05/05 08:23:20;;;;;;;3.43;1.67;;;13.00;46.40;;;;;;5043762;28;20234;-46
2021/05/05 08:25:47;;;;;;;1.73;1.20;;;13.30;46.20;;;;;;5043949;28;20732;-43
2021/05/05 08:28:13;;;;;;;1.70;1.00;;;13.40;44.60;;;;;;5039190;28;20189;-43
2021/05/05 08:30:40;;;;;;;2.83;1.53;;;13.40;44.70;;;;;;5045128;28;20745;-43
2021/05/05 08:33:05;;;;;;;8.30;1.63;;;13.80;45.60;;;;;;5040126;28;20235;-43
2021/05/05 08:35:31;;;;;;;3.20;1.30;;;13.60;44.30;;;;;;5049806;28;20903;-43
2021/05/05 08:37:57;;;;;;;4.40;1.37;;;13.40;44.20;;;;;;5048871;28;20272;-43
2021/05/05 08:40:22;;;;;;;5.30;1.70;;;13.00;44.60;;;;;;5040158;28;20196;-43
2021/05/05 08:42:49;;;;;;;6.40;1.70;;;13.10;46.10;;;;;;5050410;28;20602;-45
2021/05/05 08:45:21;;;;;;;2.83;1.33;;;13.30;47.50;;;;;;5046347;28;20188;-44
2021/05/05 08:47:48;;;;;;;4.13;1.67;;;13.50;47.10;;;;;;5049156;28;20439;-43
2021/05/05 08:50:16;;;;;;;2.23;1.37;;;13.90;46.80;;;;;;5049626;28;20931;-43
2021/05/05 08:52:43;;;;;;;4.77;1.53;;;14.00;45.00;;;;;;5042333;28;20479;-43
2021/05/05 08:55:11;;;;;;;4.90;1.70;;;14.00;45.10;;;;;;5049563;28;20447;-43
2021/05/05 08:57:37;;;;;;;3.57;1.30;;;14.30;44.00;;;;;;5042109;28;20447;-43
2021/05/05 09:00:11;;;;;;;4.20;1.60;;;14.30;43.00;;;;;;5041416;28;20515;-45
2021/05/05 09:02:37;;;;;;;4.53;1.43;;;14.30;42.40;;;;;;5042779;28;20675;-45
2021/05/05 09:05:11;;;;;;;3.00;1.50;;;14.40;41.60;;;;;;5048862;28;20460;-44
2021/05/05 09:07:38;;;;;;;5.17;1.43;;;14.80;42.10;;;;;;5049203;28;20814;-43
2021/05/05 09:10:13;;;;;;;4.57;1.57;;;15.10;41.30;;;;;;5048449;28;20954;-44
2021/05/05 09:12:41;;;;;;;2.67;1.47;;;15.20;40.40;;;;;;5028045;28;20837;-43
2021/05/05 09:15:15;;;;;;;1.60;1.20;;;15.40;40.90;;;;;;5045765;28;20439;-43
2021/05/05 09:17:49;;;;;;;4.30;1.50;;;15.30;39.50;;;;;;5041741;28;20442;-43
2021/05/05 09:20:28;;;;;;;3.57;1.30;;;15.20;38.80;;;;;;5044566;28;21017;-44
2021/05/05 09:22:55;;;;;;;2.53;1.50;;;15.10;38.70;;;;;;5041677;28;20451;-45
2021/05/05 09:25:44;;;;;;;1.77;1.20;;;15.20;38.20;;;;;;5045551;28;20454;-45
2021/05/05 09:28:21;;;;;;;5.43;1.20;;;15.50;38.30;;;;;;5045607;28;20521;-44
2021/05/05 09:30:53;;;;;;;4.13;1.60;;;15.60;38.50;;;;;;5041797;28;20565;-45
2021/05/05 09:33:29;;;;;;;3.70;1.53;;;15.90;37.90;;;;;;5041982;28;20528;-44
2021/05/05 09:35:57;;;;;;;1.43;1.30;;;15.90;37.20;;;;;;5041982;28;20466;-44
2021/05/05 09:38:50;;;;;;;1.60;1.50;;;16.00;37.70;;;;;;5039613;28;20916;-45
2021/05/05 09:41:18;;;;;;;4.13;1.30;;;16.20;36.80;;;;;;5046096;28;20966;-48
2021/05/05 09:43:43;;;;;;;4.30;1.53;;;16.10;36.00;;;;;;5036309;28;20501;-42
2021/05/05 09:46:30;;;;;;;2.73;1.00;;;16.20;35.50;;;;;;5042363;28;20435;-44
2021/05/05 09:49:22;;;;;;;4.07;1.33;;;16.30;35.60;;;;;;5033153;28;20202;-44
2021/05/05 09:51:57;;;;;;;2.90;1.20;;;16.20;33.90;;;;;;5037695;28;20474;-43
2021/05/05 09:54:28;;;;;;;2.40;1.17;;;16.30;33.30;;;;;;5043114;28;20517;-43
2021/05/05 09:57:10;;;;;;;1.93;0.93;;;16.50;33.70;;;;;;5042736;28;20448;-44
2021/05/05 10:00:15;;;;;;;4.93;1.73;;;16.70;33.90;;;;;;5040370;28;20457;-43
2021/05/05 10:02:47;;;;;;;1.33;1.10;;;16.70;32.30;;;;;;5049061;28;20470;-42
2021/05/05 10:05:17;;;;;;;4.60;1.50;;;16.50;31.30;;;;;;5043621;28;20439;-43
2021/05/05 10:08:03;;;;;;;2.90;1.20;;;16.60;32.00;;;;;;5045166;28;20528;-43
2021/05/05 10:10:42;;;;;;;4.70;1.40;;;16.40;32.00;;;;;;5047689;28;20457;-43
2021/05/05 10:13:11;;;;;;;2.23;1.30;;;15.90;32.40;;;;;;5044929;28;20486;-44
2021/05/05 10:15:39;;;;;;;2.10;1.30;;;16.00;33.70;;;;;;5048208;28;20447;-43
2021/05/05 10:18:09;;;;;;;2.03;1.27;;;16.10;33.30;;;;;;5046420;28;20452;-44
2021/05/05 10:20:35;;;;;;;1.60;1.50;;;16.20;33.00;;;;;;5046880;28;20446;-45
2021/05/05 10:23:03;;;;;;;1.80;1.13;;;16.00;32.00;;;;;;5046001;28;20976;-44
2021/05/05 10:25:30;;;;;;;2.87;1.07;;;16.00;33.80;;;;;;5049283;28;20796;-44
2021/05/05 10:27:57;;;;;;;1.77;1.33;;;15.80;34.00;;;;;;5040015;28;20553;-46
2021/05/05 10:30:25;;;;;;;2.70;1.20;;;15.70;32.40;;;;;;5040303;28;20463;-44
2021/05/05 10:32:52;;;;;;;2.67;1.23;;;15.40;31.80;;;;;;5048838;28;20483;-43
2021/05/05 10:35:21;;;;;;;1.77;1.23;;;15.70;32.50;;;;;;5047570;28;20497;-42
2021/05/05 10:37:56;;;;;;;4.13;1.23;;;15.50;31.40;;;;;;5038867;28;20534;-42
2021/05/05 10:40:36;;;;;;;1.67;1.20;;;15.50;32.40;;;;;;5042460;28;20547;-43
2021/05/05 10:43:06;;;;;;;3.23;0.97;;;15.70;32.30;;;;;;5046722;28;20492;-45
2021/05/05 10:45:42;;;;;;;3.20;1.10;;;15.90;32.30;;;;;;5047184;28;20859;-43
2021/05/05 10:48:14;;;;;;;1.63;1.03;;;16.00;32.60;;;;;;5049834;28;20454;-43
2021/05/05 10:50:57;;;;;;;2.53;1.40;;;16.00;32.30;;;;;;5046761;28;20439;-43
2021/05/05 10:53:43;;;;;;;1.93;1.17;;;15.50;33.60;;;;;;5041878;28;20527;-45
2021/05/05 10:56:23;;;;;;;3.70;0.87;;;15.40;33.80;;;;;;5034136;28;20484;-43
2021/05/05 10:59:06;;;;;;;2.30;0.70;;;14.50;42.70;;;;;;5046161;28;20439;-43
2021/05/05 11:01:48;;;;;;;1.00;0.70;;;13.10;47.20;;;;;;5049125;28;20438;-42
2021/05/05 11:04:14;;;;;;;1.43;0.60;;;12.60;52.10;;;;;;5049878;28;20434;-42
2021/05/05 11:06:40;;;;;;;1.80;0.70;;;12.40;53.90;;;;;;5053257;28;20443;-42
2021/05/05 11:09:11;;;;;;;1.20;1.07;;;11.90;54.70;;;;;;5052467;28;20427;-42
2021/05/05 11:11:43;;;;;;;0.70;0.70;;;11.70;55.70;;;;;;5050765;28;20189;-42
2021/05/05 11:14:09;;;;;;;5.37;1.13;;;11.10;56.50;;;;;;5051592;28;20851;-42
2021/05/05 11:17:08;;;;;;;0.80;0.70;;;10.90;57.70;;;;;;5044435;28;20436;-42
2021/05/05 11:19:46;;;;;;;2.70;0.90;;;10.80;57.70;;;;;;5037127;28;20197;-42
2021/05/05 11:22:23;;;;;;;1.27;1.10;;;10.30;57.20;;;;;;5045810;28;20449;-42
2021/05/05 11:24:51;;;;;;;1.63;1.10;;;10.40;58.30;;;;;;5052923;28;20496;-42
2021/05/05 11:27:18;;;;;;;2.23;1.13;;;10.40;57.80;;;;;;5048095;28;20439;-42
2021/05/05 11:29:51;;;;;;;2.67;1.13;;;10.60;57.70;;;;;;5046110;28;20925;-40
2021/05/05 11:32:24;;;;;;;1.90;0.93;;;10.80;57.30;;;;;;5051294;28;20465;-42
2021/05/05 11:34:50;;;;;;;3.90;1.10;;;11.00;57.30;;;;;;5049111;28;20888;-42
2021/05/05 11:37:15;;;;;;;2.57;1.20;;;11.40;57.60;;;;;;5040035;28;20476;-41
2021/05/05 11:39:41;;;;;;;2.27;1.17;;;11.70;55.90;;;;;;5044449;28;20463;-41
2021/05/05 11:42:15;;;;;;;1.83;0.90;;;11.90;56.50;;;;;;5048176;28;20276;-41
2021/05/05 11:44:45;;;;;;;1.00;0.90;;;12.30;57.00;;;;;;5047140;28;20224;-43
2021/05/05 11:47:17;;;;;;;1.63;0.80;;;12.60;55.00;;;;;;5042250;28;20446;-42
2021/05/05 11:49:43;;;;;;;3.67;0.67;;;12.70;54.00;;;;;;5044793;28;20498;-44
2021/05/05 11:52:27;;;;;;;1.67;1.10;;;12.90;54.20;;;;;;5046513;28;20445;-41
2021/05/05 11:55:21;;;;;;;1.83;1.10;;;12.80;52.80;;;;;;5051699;28;20275;-43
2021/05/05 11:57:52;;;;;;;1.00;0.80;;;12.90;52.70;;;;;;5051148;28;20443;-43
2021/05/05 12:00:39;;;;;;;1.53;0.93;;;12.90;53.40;;;;;;5050999;28;20465;-44
2021/05/05 12:03:12;;;;;;;1.20;0.90;;;13.10;53.50;;;;;;5043015;28;20439;-41
2021/05/05 12:05:38;;;;;;;1.97;1.00;;;13.20;52.70;;;;;;5049396;28;20900;-41
2021/05/05 12:08:04;;;;;;;1.50;1.20;;;13.40;51.30;;;;;;5046445;28;20527;-41
2021/05/05 12:10:43;;;;;;;3.30;1.40;;;13.70;50.20;;;;;;5049874;28;20454;-42
2021/05/05 12:13:19;;;;;;;3.03;1.50;;;13.80;49.10;;;;;;5049639;28;20482;-43
2021/05/05 12:15:58;;;;;;;3.20;1.30;;;14.00;49.50;;;;;;5047123;28;20526;-44
2021/05/05 12:18:29;;;;;;;4.57;1.40;;;14.20;48.80;;;;;;5043866;28;20431;-43
2021/05/05 12:21:22;;;;;;;2.17;1.10;;;14.20;48.00;;;;;;5052049;28;20488;-44
2021/05/05 12:23:52;;;;;;;2.73;1.10;;;14.30;48.10;;;;;;5049176;28;20431;-43
2021/05/05 12:26:27;;;;;;;1.60;0.83;;;14.40;47.00;;;;;;5050326;28;20438;-44
2021/05/05 12:28:57;;;;;;;1.53;1.00;;;14.70;47.40;;;;;;5050060;28;20458;-43
2021/05/05 12:31:25;;;;;;;2.03;1.20;;;14.80;46.40;;;;;;5050503;28;20435;-43
2021/05/05 12:33:51;;;;;;;1.90;1.10;;;15.00;45.30;;;;;;5051005;28;20835;-43
2021/05/05 12:36:22;;;;;;;1.53;1.10;;;14.80;45.10;;;;;;5047723;28;20474;-43
2021/05/05 12:38:50;;;;;;;4.30;0.97;;;15.00;46.00;;;;;;5050261;28;20220;-44
2021/05/05 12:41:23;;;;;;;2.90;1.20;;;14.80;45.40;;;;;;5048467;28;20531;-43
2021/05/05 12:43:51;;;;;;;1.90;1.13;;;14.90;45.80;;;;;;5049028;28;20454;-43
2021/05/05 12:46:54;;;;;;;2.27;1.43;;;15.10;45.40;;;;;;5050876;28;20416;-44
2021/05/05 12:49:28;;;;;;;4.23;1.00;;;15.20;45.20;;;;;;5050501;28;20454;-43
2021/05/05 12:51:54;;;;;;;1.83;1.20;;;15.30;44.50;;;;;;5046656;28;20441;-44
2021/05/05 12:54:24;;;;;;;2.10;1.03;;;15.20;45.50;;;;;;5047593;28;20489;-43
2021/05/05 12:56:50;;;;;;;4.20;1.10;;;15.10;45.50;;;;;;5048006;28;20819;-43
2021/05/05 12:59:24;;;;;;;1.70;1.10;;;15.20;43.70;;;;;;5045950;28;20490;-43